createdAt,value
2022-12-23T00:00:43.647Z,39.30
2022-12-23T00:03:10.811Z,38.00
2022-12-23T00:05:39.736Z,37.40
2022-12-23T00:08:08.474Z,38.33
2022-12-23T00:10:39.685Z,37.10
2022-12-23T00:13:26.908Z,37.70
2022-12-23T00:16:12.713Z,36.83
2022-12-23T00:18:40.595Z,37.00
2022-12-23T00:21:11.207Z,35.92
2022-12-23T00:23:40.765Z,36.92
2022-12-23T00:26:13.465Z,36.47
2022-12-23T00:28:40.411Z,36.08
2022-12-23T00:31:08.407Z,35.30
2022-12-23T00:33:40.826Z,34.40
2022-12-23T00:36:19.564Z,37.22
2022-12-23T00:39:04.925Z,36.25
2022-12-23T00:41:51.052Z,34.73
2022-12-23T00:46:45.085Z,34.00
2022-12-23T00:49:32.221Z,35.78
2022-12-23T00:51:59.413Z,35.65
2022-12-23T00:54:26.621Z,32.15
2022-12-23T00:56:53.928Z,34.75
2022-12-23T00:59:20.941Z,34.47
2022-12-23T01:02:06.709Z,34.25
2022-12-23T01:04:52.980Z,35.58
2022-12-23T01:07:20.380Z,35.00
2022-12-23T01:09:47.477Z,33.92
2022-12-23T01:12:14.428Z,34.25
2022-12-23T01:14:41.613Z,35.58
2022-12-23T01:17:09.090Z,36.65
2022-12-23T01:19:36.335Z,37.78
2022-12-23T01:22:03.593Z,35.65
2022-12-23T01:24:32.032Z,37.15
2022-12-23T01:26:59.277Z,37.45
2022-12-23T01:29:27.568Z,37.83
2022-12-23T01:31:54.671Z,38.80
2022-12-23T01:34:21.781Z,37.97
2022-12-23T01:36:48.706Z,37.35
2022-12-23T01:39:15.823Z,36.75
2022-12-23T01:42:01.304Z,38.75
2022-12-23T01:44:54.883Z,37.67
2022-12-23T01:47:43.618Z,41.63
2022-12-23T01:50:10.478Z,38.20
2022-12-23T01:52:56.944Z,40.38
2022-12-23T01:55:29.571Z,38.78
2022-12-23T01:58:05.285Z,39.10
2022-12-23T02:00:50.939Z,38.50
2022-12-23T02:03:36.715Z,40.80
2022-12-23T02:06:23.228Z,41.50
2022-12-23T02:09:08.690Z,41.58
2022-12-23T02:11:52.052Z,39.67
2022-12-23T02:14:54.304Z,41.78
2022-12-23T02:17:29.297Z,40.72
2022-12-23T02:20:17.407Z,40.43
2022-12-23T02:23:23.731Z,38.58
2022-12-23T02:25:59.537Z,38.88
2022-12-23T02:28:57.148Z,43.38
2022-12-23T02:31:57.529Z,40.80
2022-12-23T02:34:56.775Z,40.28
2022-12-23T02:37:27.003Z,40.85
2022-12-23T02:40:08.025Z,39.42
2022-12-23T02:42:34.900Z,39.75
2022-12-23T02:45:09.709Z,40.53
2022-12-23T02:47:42.710Z,40.85
2022-12-23T02:50:16.423Z,41.08
2022-12-23T02:52:47.019Z,41.63
2022-12-23T02:55:19.587Z,38.35
2022-12-23T02:57:50.857Z,40.35
2022-12-23T03:00:18.976Z,37.67
2022-12-23T03:02:46.504Z,39.20
2022-12-23T03:05:41.123Z,38.47
2022-12-23T03:08:17.116Z,38.40
2022-12-23T03:11:13.750Z,37.83
2022-12-23T03:13:43.785Z,36.40
2022-12-23T03:16:17.877Z,38.63
2022-12-23T03:19:06.087Z,38.88
2022-12-23T03:21:54.246Z,39.58
2022-12-23T03:24:21.204Z,38.28
2022-12-23T03:27:11.565Z,37.28
2022-12-23T03:29:58.000Z,36.95
2022-12-23T03:32:27.768Z,37.63
2022-12-23T03:34:58.504Z,35.92
2022-12-23T03:37:28.145Z,39.08
2022-12-23T03:40:01.684Z,34.90
2022-12-23T03:42:41.463Z,37.25
2022-12-23T03:48:11.810Z,38.85
2022-12-23T03:50:40.083Z,39.75
2022-12-23T03:53:22.780Z,39.00
2022-12-23T03:55:56.698Z,39.38
2022-12-23T03:58:29.493Z,37.30
2022-12-23T04:01:11.335Z,37.47
2022-12-23T04:03:49.675Z,38.15
2022-12-23T04:06:20.272Z,37.30
2022-12-23T04:08:48.692Z,40.22
2022-12-23T04:11:16.128Z,36.03
2022-12-23T04:13:43.314Z,37.60
2022-12-23T04:16:10.903Z,38.67
2022-12-23T04:18:38.011Z,39.13
2022-12-23T04:21:05.381Z,38.00
2022-12-23T04:23:32.329Z,38.60
2022-12-23T04:25:59.333Z,38.60
2022-12-23T04:28:26.377Z,40.10
2022-12-23T04:30:53.389Z,40.20
2022-12-23T04:33:20.302Z,39.70
2022-12-23T04:35:47.230Z,39.45
2022-12-23T04:38:14.276Z,39.45
2022-12-23T04:40:44.923Z,40.65
2022-12-23T04:43:11.962Z,42.75
2022-12-23T04:45:38.937Z,41.15
2022-12-23T04:48:05.976Z,39.58
2022-12-23T04:50:33.121Z,39.10
2022-12-23T04:53:00.211Z,41.55
2022-12-23T04:55:27.229Z,41.42
2022-12-23T04:57:54.163Z,39.80
2022-12-23T05:00:22.133Z,43.80
2022-12-23T05:02:49.197Z,44.58
2022-12-23T05:05:16.248Z,46.83
2022-12-23T05:07:43.225Z,47.65
2022-12-23T05:10:10.768Z,47.35
2022-12-23T05:12:37.749Z,45.03
2022-12-23T05:15:05.337Z,43.58
2022-12-23T05:17:32.299Z,44.72
2022-12-23T05:19:59.587Z,46.03
2022-12-23T05:22:26.633Z,46.50
2022-12-23T05:24:53.668Z,44.78
2022-12-23T05:27:20.661Z,42.40
2022-12-23T05:29:47.580Z,42.42
2022-12-23T05:32:14.515Z,44.53
2022-12-23T05:34:41.462Z,44.15
2022-12-23T05:37:08.417Z,43.17
2022-12-23T05:39:35.488Z,43.90
2022-12-23T05:42:02.564Z,42.67
2022-12-23T05:44:29.564Z,36.65
2022-12-23T05:46:56.563Z,39.15
2022-12-23T05:49:25.331Z,36.45
2022-12-23T05:51:52.472Z,38.47
2022-12-23T05:54:19.472Z,36.53
2022-12-23T05:56:46.437Z,36.13
2022-12-23T05:59:14.563Z,38.20
2022-12-23T06:01:41.652Z,38.95
2022-12-23T06:04:08.729Z,39.95
2022-12-23T06:06:35.726Z,40.55
2022-12-23T06:09:03.037Z,41.22
2022-12-23T06:11:30.026Z,39.05
2022-12-23T06:13:57.090Z,38.90
2022-12-23T06:16:24.200Z,38.70
2022-12-23T06:18:57.466Z,40.17
2022-12-23T06:21:25.600Z,39.33
2022-12-23T06:23:52.747Z,37.25
2022-12-23T06:26:19.802Z,38.20
2022-12-23T06:28:47.083Z,38.00
2022-12-23T06:31:14.992Z,37.38
2022-12-23T06:33:42.036Z,37.45
2022-12-23T06:36:09.411Z,35.97
2022-12-23T06:38:36.386Z,37.22
2022-12-23T06:41:03.724Z,37.33
2022-12-23T06:43:30.699Z,38.33
2022-12-23T06:45:57.787Z,36.65
2022-12-23T06:48:24.733Z,38.20
2022-12-23T06:50:51.918Z,36.95
2022-12-23T06:53:19.166Z,36.28
2022-12-23T06:55:46.128Z,37.00
2022-12-23T06:58:13.170Z,39.40
2022-12-23T07:00:40.127Z,37.55
2022-12-23T07:03:07.208Z,37.17
2022-12-23T07:05:37.627Z,38.78
2022-12-23T07:08:05.536Z,37.47
2022-12-23T07:10:33.613Z,37.60
2022-12-23T07:13:01.591Z,39.22
2022-12-23T07:15:28.599Z,37.10
2022-12-23T07:17:55.858Z,38.78
2022-12-23T07:20:22.852Z,38.95
2022-12-23T07:22:50.333Z,38.97
2022-12-23T07:25:17.333Z,36.88
2022-12-23T07:27:44.354Z,39.25
2022-12-23T07:30:11.616Z,39.35
2022-12-23T07:32:38.562Z,38.88
2022-12-23T07:35:06.069Z,38.38
2022-12-23T07:37:33.031Z,39.00
2022-12-23T07:40:04.991Z,37.42
2022-12-23T07:42:50.663Z,39.83
2022-12-23T07:45:17.653Z,38.65
2022-12-23T07:47:44.863Z,36.42
2022-12-23T07:50:12.800Z,38.80
2022-12-23T07:52:40.048Z,36.90
2022-12-23T07:55:07.380Z,36.85
2022-12-23T07:57:37.881Z,37.65
2022-12-23T08:00:07.245Z,38.63
2022-12-23T08:02:39.934Z,35.28
2022-12-23T08:05:07.635Z,38.28
2022-12-23T08:07:34.652Z,36.45
2022-12-23T08:10:02.792Z,56.00
2022-12-23T08:12:30.095Z,40.55
2022-12-23T08:14:57.316Z,39.38
2022-12-23T08:17:28.593Z,38.10
2022-12-23T08:19:56.905Z,37.95
2022-12-23T08:22:24.503Z,39.67
2022-12-23T08:24:52.588Z,38.33
2022-12-23T08:27:19.867Z,38.20
2022-12-23T08:29:46.907Z,37.83
2022-12-23T08:32:13.991Z,38.58
2022-12-23T08:34:41.063Z,36.30
2022-12-23T08:37:08.103Z,38.25
2022-12-23T08:39:35.584Z,38.38
2022-12-23T08:42:02.588Z,37.30
2022-12-23T08:44:29.873Z,39.25
2022-12-23T08:46:57.265Z,38.67
2022-12-23T08:49:24.238Z,39.42
2022-12-23T08:51:51.287Z,37.95
2022-12-23T08:54:20.380Z,40.85
2022-12-23T08:56:47.511Z,38.88
2022-12-23T08:59:19.113Z,38.05
2022-12-23T09:01:48.096Z,39.35
2022-12-23T09:04:15.633Z,39.67
2022-12-23T09:06:43.807Z,40.22
2022-12-23T09:09:12.282Z,40.28
2022-12-23T09:11:39.719Z,42.25
2022-12-23T09:14:08.664Z,38.58
2022-12-23T09:16:36.222Z,41.45
2022-12-23T09:19:03.657Z,41.08
2022-12-23T09:21:30.751Z,40.92
2022-12-23T09:23:57.747Z,40.42
2022-12-23T09:26:27.865Z,39.58
2022-12-23T09:28:55.793Z,39.95
2022-12-23T09:31:23.581Z,39.95
2022-12-23T09:33:52.661Z,40.03
2022-12-23T09:36:21.320Z,39.63
2022-12-23T09:38:53.448Z,41.95
2022-12-23T09:41:39.372Z,43.45
2022-12-23T09:44:37.197Z,43.83
2022-12-23T09:47:08.910Z,43.38
2022-12-23T09:49:49.848Z,42.33
2022-12-23T09:52:24.026Z,41.33
2022-12-23T09:54:53.822Z,44.58
2022-12-23T09:57:23.117Z,46.13
2022-12-23T10:00:01.108Z,48.03
2022-12-23T10:02:34.328Z,44.45
2022-12-23T10:05:22.536Z,45.58
2022-12-23T10:08:16.084Z,47.25
2022-12-23T10:10:47.290Z,46.90
2022-12-23T10:13:41.187Z,47.97
2022-12-23T10:16:35.056Z,46.78
2022-12-23T10:19:14.431Z,49.15
2022-12-23T10:21:47.477Z,48.10
2022-12-23T10:24:17.512Z,48.00
2022-12-23T10:26:55.347Z,45.95
2022-12-23T10:29:25.188Z,47.15
2022-12-23T10:32:16.734Z,46.97
2022-12-23T10:35:26.440Z,45.28
2022-12-23T10:38:12.412Z,45.97
2022-12-23T10:40:57.454Z,44.42
2022-12-23T10:43:52.142Z,43.92
2022-12-23T10:46:22.755Z,44.65
2022-12-23T10:49:02.955Z,44.65
2022-12-23T10:51:42.117Z,46.50
2022-12-23T10:54:14.436Z,45.58
2022-12-23T10:56:41.675Z,45.58
2022-12-23T10:59:13.905Z,44.90
2022-12-23T11:01:43.458Z,43.38
2022-12-23T11:04:17.668Z,47.40
2022-12-23T11:06:52.821Z,45.78
2022-12-23T11:09:38.000Z,45.53
2022-12-23T11:12:08.021Z,46.22
2022-12-23T11:14:41.463Z,44.80
2022-12-23T11:17:25.463Z,45.08
2022-12-23T11:20:10.519Z,45.33
2022-12-23T11:22:49.426Z,45.08
2022-12-23T11:25:24.916Z,47.92
2022-12-23T11:28:00.017Z,45.05
2022-12-23T11:30:29.495Z,45.65
2022-12-23T11:32:57.055Z,45.70
2022-12-23T11:35:29.983Z,45.55
2022-12-23T11:37:59.396Z,44.22
2022-12-23T11:40:37.375Z,47.63
2022-12-23T11:43:15.847Z,45.90
2022-12-23T11:45:42.896Z,46.15
2022-12-23T11:48:28.522Z,47.42
2022-12-23T11:51:00.868Z,44.90
2022-12-23T11:53:28.271Z,44.58
2022-12-23T11:56:12.570Z,46.40
2022-12-23T11:58:54.247Z,48.00
2022-12-23T12:01:25.096Z,46.78
2022-12-23T12:03:59.901Z,45.50
2022-12-23T12:06:28.189Z,42.20
2022-12-23T12:08:58.411Z,43.78
2022-12-23T12:11:35.469Z,43.08
2022-12-23T12:14:04.718Z,44.75
2022-12-23T12:16:43.056Z,43.78
2022-12-23T12:19:12.520Z,43.42
2022-12-23T12:21:39.882Z,42.05
2022-12-23T12:24:37.939Z,40.88
2022-12-23T12:27:07.195Z,40.33
2022-12-23T12:29:39.854Z,42.10
2022-12-23T12:32:17.103Z,41.67
2022-12-23T12:35:00.453Z,40.33
2022-12-23T12:38:06.964Z,42.47
2022-12-23T12:40:42.018Z,36.30
2022-12-23T12:43:27.778Z,35.15
2022-12-23T12:46:16.015Z,35.88
2022-12-23T12:48:55.758Z,38.30
2022-12-23T12:52:07.431Z,36.40
2022-12-23T12:54:55.592Z,38.97
2022-12-23T12:57:23.839Z,38.00
2022-12-23T12:59:59.942Z,37.88
2022-12-23T13:03:07.950Z,37.05
2022-12-23T13:06:05.199Z,35.90
2022-12-23T13:08:46.089Z,37.00
2022-12-23T13:11:37.900Z,36.10
2022-12-23T13:14:16.783Z,37.45
2022-12-23T13:17:10.483Z,35.90
2022-12-23T13:19:56.406Z,32.63
2022-12-23T13:22:33.593Z,34.58
2022-12-23T13:25:22.733Z,33.25
2022-12-23T13:28:21.875Z,33.33
2022-12-23T13:31:30.854Z,32.75
2022-12-23T13:34:03.440Z,33.38
2022-12-23T13:36:59.714Z,34.60
2022-12-23T13:39:45.664Z,36.45
2022-12-23T13:42:18.351Z,33.28
2022-12-23T13:44:45.770Z,33.45
2022-12-23T13:47:25.409Z,33.45
2022-12-23T13:49:55.454Z,34.58
2022-12-23T13:52:43.784Z,34.00
2022-12-23T13:55:21.361Z,34.97
2022-12-23T13:58:01.133Z,32.25
2022-12-23T14:00:33.627Z,34.53
2022-12-23T14:03:00.795Z,33.95
2022-12-23T14:05:47.710Z,33.03
2022-12-23T14:08:39.900Z,34.47
2022-12-23T14:11:27.032Z,33.00
2022-12-23T14:14:02.453Z,34.33
2022-12-23T14:16:48.414Z,33.83
2022-12-23T14:19:55.148Z,33.95
2022-12-23T14:22:24.801Z,34.17
2022-12-23T14:25:03.775Z,33.53
2022-12-23T14:27:52.026Z,33.10
2022-12-23T14:30:35.800Z,32.00
2022-12-23T14:33:23.770Z,34.17
2022-12-23T14:36:13.108Z,34.63
2022-12-23T14:38:40.241Z,33.83
2022-12-23T14:41:40.855Z,30.70
2022-12-23T14:44:36.263Z,32.75
2022-12-23T14:47:25.399Z,31.73
2022-12-23T14:49:52.571Z,32.10
2022-12-23T14:52:38.044Z,31.33
2022-12-23T14:55:42.443Z,31.63
2022-12-23T14:58:34.269Z,34.08
2022-12-23T15:01:36.573Z,34.70
2022-12-23T15:04:20.669Z,35.20
2022-12-23T15:07:06.554Z,35.15
2022-12-23T15:09:43.982Z,36.45
2022-12-23T15:12:16.727Z,34.55
2022-12-23T15:14:59.206Z,37.17
2022-12-23T15:17:27.580Z,37.70
2022-12-23T15:20:03.346Z,36.28
2022-12-23T15:25:00.178Z,38.05
2022-12-23T15:27:30.898Z,38.47
2022-12-23T15:29:58.348Z,38.55
2022-12-23T15:32:26.622Z,38.03
2022-12-23T15:35:04.997Z,38.22
2022-12-23T15:37:32.817Z,38.25
2022-12-23T15:40:09.542Z,40.55
2022-12-23T15:42:46.434Z,40.65
2022-12-23T15:45:35.908Z,42.53
2022-12-23T15:48:04.603Z,43.50
2022-12-23T15:50:41.616Z,43.75
2022-12-23T15:53:10.180Z,44.72
2022-12-23T15:55:40.504Z,45.35
2022-12-23T15:58:07.837Z,45.88
2022-12-23T16:00:50.842Z,44.53
2022-12-23T16:03:35.049Z,47.25
2022-12-23T16:06:09.645Z,46.35
2022-12-23T16:08:38.340Z,46.53
2022-12-23T16:11:17.044Z,46.45
2022-12-23T16:14:00.453Z,45.97
2022-12-23T16:16:33.428Z,44.33
2022-12-23T16:19:00.736Z,46.15
2022-12-23T16:21:36.605Z,44.75
2022-12-23T16:24:08.807Z,45.35
2022-12-23T16:26:43.160Z,45.58
2022-12-23T16:29:11.575Z,44.13
2022-12-23T16:31:42.894Z,47.88
2022-12-23T16:34:13.387Z,47.40
2022-12-23T16:36:40.456Z,47.05
2022-12-23T16:39:07.454Z,47.10
2022-12-23T16:41:35.433Z,46.08
2022-12-23T16:44:02.666Z,46.53
2022-12-23T16:46:36.744Z,47.28
2022-12-23T16:49:08.386Z,63.72
2022-12-23T16:51:36.693Z,50.25
2022-12-23T16:54:04.147Z,48.47
2022-12-23T16:56:35.324Z,47.97
2022-12-23T16:59:03.249Z,47.25
2022-12-23T17:01:34.169Z,48.08
2022-12-23T17:04:01.601Z,48.88
2022-12-23T17:06:29.094Z,48.55
2022-12-23T17:09:00.299Z,46.72
2022-12-23T17:11:41.354Z,48.60
2022-12-23T17:14:16.053Z,47.28
2022-12-23T17:16:46.970Z,46.03
2022-12-23T17:19:14.618Z,47.80
2022-12-23T17:21:46.609Z,46.67
2022-12-23T17:24:22.151Z,46.10
2022-12-23T17:26:49.577Z,46.63
2022-12-23T17:29:16.766Z,45.85
2022-12-23T17:31:44.708Z,44.40
2022-12-23T17:34:20.310Z,41.80
2022-12-23T17:36:50.240Z,43.60
2022-12-23T17:39:18.016Z,42.78
2022-12-23T17:41:45.181Z,44.03
2022-12-23T17:44:16.408Z,42.53
2022-12-23T17:46:44.456Z,42.88
2022-12-23T17:49:11.810Z,40.72
2022-12-23T17:51:40.063Z,42.53
2022-12-23T17:54:07.369Z,42.63
2022-12-23T17:56:34.331Z,42.63
2022-12-23T17:59:01.336Z,42.60
2022-12-23T18:01:30.820Z,41.45
2022-12-23T18:03:59.921Z,41.60
2022-12-23T18:06:28.389Z,42.35
2022-12-23T18:08:57.328Z,42.72
2022-12-23T18:11:44.177Z,40.25
2022-12-23T18:14:17.795Z,42.38
2022-12-23T18:16:44.941Z,40.65
2022-12-23T18:19:18.098Z,41.25
2022-12-23T18:21:45.776Z,42.08
2022-12-23T18:24:12.828Z,40.85
2022-12-23T18:26:39.955Z,42.30
2022-12-23T18:29:07.216Z,41.05
2022-12-23T18:31:35.692Z,40.22
2022-12-23T18:34:02.781Z,41.25
2022-12-23T18:36:33.338Z,39.83
2022-12-23T18:39:00.739Z,38.55
2022-12-23T18:41:28.008Z,39.80
2022-12-23T18:43:55.215Z,40.03
2022-12-23T18:46:22.609Z,39.67
2022-12-23T18:48:49.819Z,42.35
2022-12-23T18:51:18.963Z,39.60
2022-12-23T18:53:47.213Z,39.70
2022-12-23T18:56:16.022Z,41.85
2022-12-23T18:58:43.429Z,41.47
2022-12-23T19:01:15.310Z,41.63
2022-12-23T19:03:42.962Z,41.65
2022-12-23T19:06:13.369Z,43.30
2022-12-23T19:08:41.513Z,40.50
2022-12-23T19:11:14.403Z,41.70
2022-12-23T19:13:41.529Z,43.58
2022-12-23T19:16:12.106Z,43.70
2022-12-23T19:18:39.155Z,42.30
2022-12-23T19:21:06.441Z,41.58
2022-12-23T19:23:33.540Z,40.13
2022-12-23T19:26:00.549Z,41.28
2022-12-23T19:28:27.698Z,41.22
2022-12-23T19:30:54.795Z,41.00
2022-12-23T19:33:21.895Z,41.05
2022-12-23T19:35:48.971Z,40.58
2022-12-23T19:38:16.071Z,41.10
2022-12-23T19:40:43.368Z,41.47
2022-12-23T19:43:10.322Z,41.40
2022-12-23T19:45:37.351Z,42.05
2022-12-23T19:48:04.511Z,41.67
2022-12-23T19:50:31.471Z,42.53
2022-12-23T19:52:58.429Z,42.20
2022-12-23T19:55:25.452Z,41.25
2022-12-23T19:57:52.446Z,41.42
2022-12-23T20:00:19.702Z,42.45
2022-12-23T20:02:46.765Z,44.08
2022-12-23T20:05:13.897Z,43.83
2022-12-23T20:07:40.969Z,41.75
2022-12-23T20:10:08.458Z,41.65
2022-12-23T20:12:35.624Z,46.08
2022-12-23T20:15:02.743Z,45.75
2022-12-23T20:17:29.765Z,47.78
2022-12-23T20:19:56.756Z,46.05
2022-12-23T20:22:23.751Z,46.58
2022-12-23T20:24:51.013Z,45.72
2022-12-23T20:27:22.672Z,45.15
2022-12-23T20:29:53.152Z,44.75
2022-12-23T20:32:20.149Z,44.70
2022-12-23T20:34:48.993Z,45.55
2022-12-23T20:37:16.231Z,45.97
2022-12-23T20:39:43.332Z,43.92
2022-12-23T20:42:10.435Z,43.80
2022-12-23T20:44:37.804Z,44.13
2022-12-23T20:47:07.941Z,45.22
2022-12-23T20:49:35.027Z,45.70
2022-12-23T20:52:02.465Z,59.33
2022-12-23T20:54:33.317Z,50.30
2022-12-23T20:57:02.104Z,46.75
2022-12-23T20:59:29.252Z,45.63
2022-12-23T21:01:58.975Z,52.50
2022-12-23T21:04:26.794Z,47.75
2022-12-23T21:06:53.950Z,45.83
2022-12-23T21:09:21.079Z,44.38
2022-12-23T21:11:48.431Z,45.45
2022-12-23T21:14:15.891Z,45.88
2022-12-23T21:16:43.713Z,45.83
2022-12-23T21:19:16.385Z,47.30
2022-12-23T21:21:43.439Z,47.90
2022-12-23T21:24:11.356Z,46.10
2022-12-23T21:26:38.775Z,47.58
2022-12-23T21:29:07.556Z,47.05
2022-12-23T21:31:36.670Z,47.92
2022-12-23T21:34:03.862Z,46.28
2022-12-23T21:36:33.403Z,47.10
2022-12-23T21:39:01.020Z,45.28
2022-12-23T21:41:30.819Z,48.85
2022-12-23T21:43:59.353Z,46.03
2022-12-23T21:46:28.077Z,44.65
2022-12-23T21:48:58.994Z,47.03
2022-12-23T21:51:36.705Z,44.75
2022-12-23T21:54:06.561Z,43.90
2022-12-23T21:56:33.609Z,45.65
2022-12-23T21:59:03.584Z,43.05
2022-12-23T22:01:31.509Z,43.65
2022-12-23T22:03:59.062Z,45.63
2022-12-23T22:06:29.004Z,41.50
2022-12-23T22:08:56.686Z,44.83
2022-12-23T22:11:26.433Z,45.03
2022-12-23T22:13:55.255Z,43.28
2022-12-23T22:16:24.733Z,47.55
2022-12-23T22:18:53.123Z,43.60
2022-12-23T22:21:23.110Z,43.45
2022-12-23T22:23:51.600Z,45.00
2022-12-23T22:26:25.419Z,46.33
2022-12-23T22:28:57.178Z,46.60
2022-12-23T22:31:36.484Z,48.42
2022-12-23T22:34:04.457Z,46.85
2022-12-23T22:36:32.187Z,45.53
2022-12-23T22:39:00.545Z,45.15
2022-12-23T22:41:29.335Z,44.45
2022-12-23T22:43:57.750Z,45.75
2022-12-23T22:46:25.089Z,47.72
2022-12-23T22:48:52.916Z,46.53
2022-12-23T22:51:23.885Z,45.03
2022-12-23T22:53:51.415Z,46.72
2022-12-23T22:56:19.899Z,46.88
2022-12-23T22:58:46.974Z,44.00
2022-12-23T23:01:35.082Z,45.53
2022-12-23T23:04:03.308Z,44.38
2022-12-23T23:06:33.011Z,45.28
2022-12-23T23:09:00.490Z,43.88
2022-12-23T23:11:28.750Z,44.92
2022-12-23T23:13:56.041Z,44.97
2022-12-23T23:16:24.385Z,44.67
2022-12-23T23:18:52.725Z,46.40
2022-12-23T23:21:20.824Z,45.80
2022-12-23T23:23:48.119Z,44.35
2022-12-23T23:26:15.683Z,46.17
2022-12-23T23:28:43.751Z,46.65
2022-12-23T23:33:58.997Z,45.10
2022-12-23T23:36:26.271Z,45.60
2022-12-23T23:38:53.362Z,45.97
2022-12-23T23:41:23.251Z,46.90
2022-12-23T23:43:51.531Z,44.80
2022-12-23T23:46:18.806Z,46.47
2022-12-23T23:48:45.961Z,45.28
2022-12-23T23:51:13.027Z,44.42
2022-12-23T23:53:40.490Z,45.83
2022-12-23T23:56:08.917Z,47.08
2022-12-23T23:58:36.973Z,44.47
